createdAt,value
2018-05-06T00:01:11.138Z,89.88
2018-05-06T00:03:39.409Z,90.26
2018-05-06T00:06:07.661Z,88.65
2018-05-06T00:08:35.919Z,89.30
2018-05-06T00:11:04.199Z,88.97
2018-05-06T00:13:32.472Z,89.24
2018-05-06T00:16:00.732Z,89.67
2018-05-06T00:18:29.762Z,89.90
2018-05-06T00:20:58.023Z,90.19
2018-05-06T00:23:26.292Z,90.41
2018-05-06T00:25:55.322Z,90.11
2018-05-06T00:28:23.591Z,90.43
2018-05-06T00:30:51.847Z,90.77
2018-05-06T00:33:20.884Z,91.02
2018-05-06T00:35:49.153Z,90.56
2018-05-06T00:38:17.426Z,90.73
2018-05-06T00:40:46.458Z,91.17
2018-05-06T00:43:14.735Z,91.23
2018-05-06T00:45:43.002Z,91.11
2018-05-06T00:48:11.304Z,91.49
2018-05-06T00:50:39.563Z,91.65
2018-05-06T00:53:07.836Z,91.39
2018-05-06T00:55:36.095Z,91.39
2018-05-06T00:58:05.139Z,91.36
2018-05-06T01:00:33.412Z,91.16
2018-05-06T01:03:01.673Z,91.07
2018-05-06T01:05:29.953Z,91.31
2018-05-06T01:07:58.223Z,90.67
2018-05-06T01:10:26.503Z,90.80
2018-05-06T01:12:54.758Z,91.08
2018-05-06T01:15:23.028Z,91.33
2018-05-06T01:17:51.298Z,91.30
2018-05-06T01:20:19.575Z,91.21
2018-05-06T01:22:47.831Z,91.09
2018-05-06T01:25:16.086Z,91.40
2018-05-06T01:27:44.357Z,90.78
2018-05-06T01:30:13.378Z,90.82
2018-05-06T01:32:41.635Z,90.63
2018-05-06T01:35:10.658Z,90.78
2018-05-06T01:37:39.226Z,90.97
2018-05-06T01:40:08.251Z,91.03
2018-05-06T01:42:36.499Z,91.37
2018-05-06T01:45:05.527Z,91.45
2018-05-06T01:47:33.788Z,91.18
2018-05-06T01:50:02.883Z,91.60
2018-05-06T01:52:31.898Z,91.24
2018-05-06T01:55:00.179Z,90.90
2018-05-06T01:57:28.432Z,89.38
2018-05-06T01:59:57.451Z,89.79
2018-05-06T02:02:25.703Z,90.47
2018-05-06T02:04:53.959Z,91.21
2018-05-06T02:07:22.208Z,91.14
2018-05-06T02:09:50.786Z,91.39
2018-05-06T02:12:19.039Z,91.65
2018-05-06T02:14:48.307Z,91.54
2018-05-06T02:17:16.558Z,91.59
2018-05-06T02:19:44.811Z,91.79
2018-05-06T02:22:13.839Z,91.97
2018-05-06T02:24:42.091Z,92.10
2018-05-06T02:27:10.348Z,91.97
2018-05-06T02:29:38.620Z,92.25
2018-05-06T02:32:06.874Z,92.04
2018-05-06T02:34:35.129Z,91.84
2018-05-06T02:37:03.401Z,91.85
2018-05-06T02:39:32.420Z,92.03
2018-05-06T02:42:00.683Z,92.07
2018-05-06T02:44:28.936Z,92.20
2018-05-06T02:46:57.989Z,92.35
2018-05-06T02:49:26.256Z,92.08
2018-05-06T02:51:55.458Z,92.50
2018-05-06T02:54:23.729Z,92.48
2018-05-06T02:56:51.989Z,91.73
2018-05-06T02:59:21.011Z,90.78
2018-05-06T03:01:49.270Z,90.40
2018-05-06T03:04:18.286Z,89.36
2018-05-06T03:06:46.547Z,89.80
2018-05-06T03:09:15.570Z,89.88
2018-05-06T03:11:43.832Z,90.50
2018-05-06T03:14:12.082Z,89.36
2018-05-06T03:16:40.356Z,89.28
2018-05-06T03:19:08.602Z,90.28
2018-05-06T03:21:36.862Z,90.82
2018-05-06T03:24:06.231Z,90.83
2018-05-06T03:26:34.496Z,90.62
2018-05-06T03:29:02.755Z,90.20
2018-05-06T03:31:31.020Z,90.46
2018-05-06T03:33:59.276Z,90.03
2018-05-06T03:36:28.304Z,90.02
2018-05-06T03:38:56.554Z,90.34
2018-05-06T03:41:25.597Z,90.12
2018-05-06T03:43:53.855Z,89.79
2018-05-06T03:46:22.132Z,89.49
2018-05-06T03:48:50.392Z,89.47
2018-05-06T03:51:19.432Z,88.69
2018-05-06T03:53:47.688Z,89.08
2018-05-06T03:59:58.193Z,88.79
2018-05-06T04:02:39.265Z,88.61
2018-05-06T04:05:07.512Z,88.55
2018-05-06T04:07:35.778Z,88.94
2018-05-06T04:10:04.030Z,89.44
2018-05-06T04:12:32.303Z,89.41
2018-05-06T04:15:01.325Z,89.05
2018-05-06T04:17:30.523Z,88.94
2018-05-06T04:19:58.795Z,88.63
2018-05-06T04:22:27.064Z,88.50
2018-05-06T04:24:56.111Z,88.58
2018-05-06T04:27:24.382Z,88.36
2018-05-06T04:29:52.630Z,88.37
2018-05-06T04:32:20.901Z,87.96
2018-05-06T04:34:49.927Z,87.81
2018-05-06T04:37:18.214Z,87.50
2018-05-06T04:39:46.480Z,88.04
2018-05-06T04:42:14.757Z,87.51
2018-05-06T04:44:43.052Z,87.80
2018-05-06T04:47:11.309Z,88.00
2018-05-06T04:49:40.340Z,87.74
2018-05-06T04:52:10.255Z,87.54
2018-05-06T04:54:38.510Z,87.32
2018-05-06T04:57:06.791Z,87.27
2018-05-06T04:59:36.628Z,86.60
2018-05-06T05:02:04.892Z,86.21
2018-05-06T05:04:33.158Z,86.10
2018-05-06T05:07:02.193Z,86.22
2018-05-06T05:09:30.516Z,85.96
2018-05-06T05:11:58.721Z,85.62
2018-05-06T05:14:27.736Z,84.70
2018-05-06T05:16:56.007Z,85.49
2018-05-06T05:19:24.266Z,84.93
2018-05-06T05:21:53.316Z,84.61
2018-05-06T05:24:21.584Z,84.34
2018-05-06T05:26:49.864Z,83.96
2018-05-06T05:29:18.210Z,83.60
2018-05-06T05:31:46.422Z,83.68
2018-05-06T05:34:14.707Z,83.17
2018-05-06T05:36:42.963Z,83.16
2018-05-06T05:39:12.007Z,82.04
2018-05-06T05:41:40.249Z,81.70
2018-05-06T05:44:08.526Z,81.35
2018-05-06T05:46:37.560Z,81.33
2018-05-06T05:49:05.835Z,80.23
2018-05-06T05:51:34.380Z,79.83
2018-05-06T05:54:03.500Z,79.44
2018-05-06T05:56:31.764Z,79.29
2018-05-06T05:59:00.874Z,79.69
2018-05-06T06:01:29.181Z,79.75
2018-05-06T06:03:58.189Z,79.46
2018-05-06T06:06:26.457Z,77.96
2018-05-06T06:08:54.997Z,78.32
2018-05-06T06:11:23.362Z,78.12
2018-05-06T06:13:52.518Z,74.17
2018-05-06T06:16:20.887Z,72.99
2018-05-06T06:18:49.171Z,73.85
2018-05-06T06:21:17.443Z,72.24
2018-05-06T06:23:46.495Z,73.00
2018-05-06T06:26:14.763Z,76.04
2018-05-06T06:28:43.049Z,74.81
2018-05-06T06:31:11.366Z,73.94
2018-05-06T06:33:39.635Z,73.89
2018-05-06T06:36:07.885Z,73.93
2018-05-06T06:38:36.200Z,73.92
2018-05-06T06:41:04.463Z,74.65
2018-05-06T06:43:32.737Z,74.19
2018-05-06T06:46:00.994Z,74.16
2018-05-06T06:48:29.269Z,75.33
2018-05-06T06:50:57.535Z,75.86
2018-05-06T06:53:25.804Z,74.95
2018-05-06T06:55:54.835Z,73.48
2018-05-06T06:58:23.110Z,74.68
2018-05-06T07:00:51.389Z,74.54
2018-05-06T07:03:19.639Z,74.18
2018-05-06T07:05:48.749Z,77.36
2018-05-06T07:08:16.954Z,77.92
2018-05-06T07:10:45.213Z,79.43
2018-05-06T07:13:13.719Z,79.89
2018-05-06T07:15:42.096Z,76.31
2018-05-06T07:18:10.379Z,77.02
2018-05-06T07:20:38.642Z,77.36
2018-05-06T07:23:06.900Z,76.34
2018-05-06T07:25:35.189Z,75.04
2018-05-06T07:28:04.231Z,74.37
2018-05-06T07:30:32.507Z,75.55
2018-05-06T07:33:00.774Z,73.11
2018-05-06T07:35:29.060Z,73.69
2018-05-06T07:37:57.327Z,71.81
2018-05-06T07:40:25.590Z,72.08
2018-05-06T07:42:54.627Z,73.00
2018-05-06T07:45:22.895Z,72.91
2018-05-06T07:47:51.159Z,73.46
2018-05-06T07:50:20.198Z,69.18
2018-05-06T07:52:48.458Z,67.01
2018-05-06T07:55:16.742Z,62.65
2018-05-06T07:57:44.990Z,57.89
2018-05-06T08:00:14.020Z,43.90
2018-05-06T08:02:42.297Z,44.49
2018-05-06T08:05:11.236Z,46.23
2018-05-06T08:07:39.500Z,53.93
2018-05-06T08:10:07.772Z,59.14
2018-05-06T08:12:36.035Z,47.52
2018-05-06T08:15:04.304Z,38.95
2018-05-06T08:17:32.580Z,42.18
2018-05-06T08:20:01.624Z,40.07
2018-05-06T08:22:29.950Z,29.31
2018-05-06T08:24:58.155Z,38.45
2018-05-06T08:27:26.422Z,43.02
2018-05-06T08:29:54.694Z,44.50
2018-05-06T08:32:23.719Z,40.71
2018-05-06T08:34:51.979Z,40.96
2018-05-06T08:37:20.260Z,43.26
2018-05-06T08:39:48.538Z,37.18
2018-05-06T08:42:17.555Z,39.12
2018-05-06T08:44:45.836Z,41.63
2018-05-06T08:47:15.882Z,43.21
2018-05-06T08:49:44.146Z,34.26
2018-05-06T08:52:12.407Z,29.65
2018-05-06T08:54:40.706Z,26.19
2018-05-06T08:57:08.981Z,23.86
2018-05-06T08:59:37.329Z,28.37
2018-05-06T09:02:06.351Z,28.83
2018-05-06T09:04:34.631Z,28.71
2018-05-06T09:07:03.659Z,30.79
2018-05-06T09:09:31.927Z,31.44
2018-05-06T09:12:00.211Z,39.16
2018-05-06T09:14:28.471Z,42.55
2018-05-06T09:16:56.746Z,48.26
2018-05-06T09:19:25.012Z,35.64
2018-05-06T09:21:54.046Z,33.49
2018-05-06T09:24:22.303Z,34.58
2018-05-06T09:26:50.575Z,35.90
2018-05-06T09:29:19.599Z,33.78
2018-05-06T09:31:47.900Z,29.98
2018-05-06T09:34:16.156Z,30.35
2018-05-06T09:36:44.428Z,32.59
2018-05-06T09:39:12.684Z,33.14
2018-05-06T09:41:40.951Z,30.64
2018-05-06T09:44:09.222Z,33.75
2018-05-06T09:46:37.488Z,27.49
2018-05-06T09:49:06.442Z,29.07
2018-05-06T09:51:34.731Z,29.14
2018-05-06T09:54:02.994Z,30.69
2018-05-06T09:56:32.027Z,25.34
2018-05-06T09:59:00.282Z,30.00
2018-05-06T10:01:28.567Z,33.31
2018-05-06T10:03:56.828Z,31.35
2018-05-06T10:06:25.872Z,34.61
2018-05-06T10:08:54.129Z,32.33
2018-05-06T10:11:22.399Z,37.75
2018-05-06T10:13:50.668Z,34.60
2018-05-06T10:16:19.711Z,31.19
2018-05-06T10:18:47.968Z,29.27
2018-05-06T10:21:16.304Z,32.15
2018-05-06T10:23:44.569Z,34.70
2018-05-06T10:26:12.866Z,36.53
2018-05-06T10:28:41.096Z,35.39
2018-05-06T10:31:09.367Z,25.99
2018-05-06T10:33:37.638Z,30.56
2018-05-06T10:36:06.677Z,31.20
2018-05-06T10:38:34.945Z,22.55
2018-05-06T10:41:03.480Z,25.94
2018-05-06T10:43:31.743Z,31.80
2018-05-06T10:46:00.016Z,29.19
2018-05-06T10:48:28.283Z,31.05
2018-05-06T10:50:56.531Z,29.80
2018-05-06T10:53:24.814Z,24.84
2018-05-06T10:55:53.835Z,23.64
2018-05-06T10:58:23.247Z,20.31
2018-05-06T11:00:51.502Z,21.24
2018-05-06T11:03:19.768Z,24.08
2018-05-06T11:05:48.792Z,28.96
2018-05-06T11:08:17.055Z,25.65
2018-05-06T11:10:46.071Z,21.21
2018-05-06T11:13:14.331Z,28.84
2018-05-06T11:15:43.354Z,28.00
2018-05-06T11:18:11.618Z,30.51
2018-05-06T11:20:39.885Z,29.23
2018-05-06T11:23:08.908Z,22.23
2018-05-06T11:25:37.177Z,25.97
2018-05-06T11:28:05.432Z,28.23
2018-05-06T11:30:33.701Z,30.05
2018-05-06T11:33:01.967Z,31.35
2018-05-06T11:35:30.220Z,31.00
2018-05-06T11:37:58.483Z,24.94
2018-05-06T11:40:26.733Z,24.99
2018-05-06T11:42:55.767Z,30.47
2018-05-06T11:45:24.079Z,27.77
2018-05-06T11:47:52.299Z,19.59
2018-05-06T11:50:21.310Z,26.67
2018-05-06T11:52:49.580Z,28.96
2018-05-06T11:55:18.943Z,20.99
2018-05-06T11:57:47.212Z,28.00
2018-05-06T12:00:15.481Z,26.20
2018-05-06T12:02:43.748Z,27.97
2018-05-06T12:05:12.012Z,20.93
2018-05-06T12:07:41.038Z,24.30
2018-05-06T12:10:09.300Z,24.62
2018-05-06T12:12:38.323Z,19.55
2018-05-06T12:15:06.575Z,28.46
2018-05-06T12:17:34.861Z,29.19
2018-05-06T12:20:03.110Z,20.92
2018-05-06T12:22:31.371Z,26.89
2018-05-06T12:24:59.646Z,25.65
2018-05-06T12:27:27.911Z,26.69
2018-05-06T12:29:56.162Z,24.38
2018-05-06T12:32:24.437Z,27.73
2018-05-06T12:34:52.694Z,26.77
2018-05-06T12:37:21.216Z,28.99
2018-05-06T12:39:49.475Z,33.22
2018-05-06T12:42:18.493Z,32.31
2018-05-06T12:44:46.756Z,31.89
2018-05-06T12:47:15.787Z,33.89
2018-05-06T12:49:44.065Z,34.13
2018-05-06T12:52:12.311Z,32.29
2018-05-06T12:54:41.343Z,34.74
2018-05-06T12:57:09.603Z,34.31
2018-05-06T12:59:37.882Z,36.06
2018-05-06T13:02:06.145Z,31.64
2018-05-06T13:04:35.188Z,33.89
2018-05-06T13:07:03.448Z,30.80
2018-05-06T13:09:31.715Z,36.40
2018-05-06T13:12:00.743Z,31.32
2018-05-06T13:14:29.014Z,32.27
2018-05-06T13:16:57.269Z,30.77
2018-05-06T13:19:26.291Z,32.23
2018-05-06T13:21:54.546Z,33.46
2018-05-06T13:24:23.571Z,34.59
2018-05-06T13:26:51.815Z,32.64
2018-05-06T13:29:20.758Z,32.78
2018-05-06T13:31:49.011Z,34.39
2018-05-06T13:34:17.277Z,35.82
2018-05-06T13:36:46.304Z,35.06
2018-05-06T13:39:14.567Z,33.83
2018-05-06T13:41:43.595Z,33.79
2018-05-06T13:44:11.931Z,34.30
2018-05-06T13:46:40.948Z,34.55
2018-05-06T13:49:09.206Z,32.33
2018-05-06T13:51:38.226Z,35.98
2018-05-06T13:54:06.495Z,33.54
2018-05-06T13:56:35.519Z,31.70
2018-05-06T13:59:03.785Z,30.83
2018-05-06T14:01:32.060Z,31.93
2018-05-06T14:04:00.309Z,33.42
2018-05-06T14:06:29.391Z,32.74
2018-05-06T14:08:57.667Z,33.50
2018-05-06T14:11:25.915Z,32.28
2018-05-06T14:13:54.183Z,32.95
2018-05-06T14:16:22.440Z,31.04
2018-05-06T14:18:50.723Z,30.10
2018-05-06T14:21:18.980Z,32.97
2018-05-06T14:23:47.231Z,30.64
2018-05-06T14:26:15.603Z,35.08
2018-05-06T14:28:43.862Z,31.33
2018-05-06T14:31:12.989Z,34.57
2018-05-06T14:33:41.246Z,33.27
2018-05-06T14:36:10.283Z,33.45
2018-05-06T14:38:38.532Z,34.16
2018-05-06T14:41:06.807Z,31.70
2018-05-06T14:43:35.837Z,32.44
2018-05-06T14:46:04.088Z,36.27
2018-05-06T14:48:32.371Z,33.29
2018-05-06T14:51:01.377Z,30.05
2018-05-06T14:53:31.102Z,31.07
2018-05-06T14:55:59.421Z,32.27
2018-05-06T14:58:27.684Z,31.62
2018-05-06T15:00:55.947Z,32.37
2018-05-06T15:03:24.212Z,32.17
2018-05-06T15:05:52.590Z,31.59
2018-05-06T15:08:20.854Z,33.10
2018-05-06T15:10:49.885Z,30.90
2018-05-06T15:13:18.146Z,32.15
2018-05-06T15:15:46.441Z,33.08
2018-05-06T15:18:15.499Z,31.20
2018-05-06T15:20:43.736Z,30.38
2018-05-06T15:23:12.000Z,32.62
2018-05-06T15:25:40.269Z,30.31
2018-05-06T15:28:08.523Z,30.86
2018-05-06T15:30:36.771Z,32.15
2018-05-06T15:33:05.047Z,30.79
2018-05-06T15:35:33.314Z,32.75
2018-05-06T15:38:01.568Z,30.83
2018-05-06T15:40:29.850Z,31.89
2018-05-06T15:42:58.098Z,32.99
2018-05-06T15:45:26.375Z,31.60
2018-05-06T15:47:54.640Z,33.39
2018-05-06T15:50:22.995Z,30.49
2018-05-06T15:52:51.180Z,30.66
2018-05-06T15:55:19.435Z,32.05
2018-05-06T15:57:47.714Z,30.75
2018-05-06T16:00:16.056Z,32.90
2018-05-06T16:03:04.373Z,31.79
2018-05-06T16:05:32.626Z,32.48
2018-05-06T16:08:00.894Z,31.01
2018-05-06T16:10:29.167Z,31.06
2018-05-06T16:12:57.432Z,31.79
2018-05-06T16:15:25.674Z,32.37
2018-05-06T16:17:53.935Z,30.57
2018-05-06T16:20:22.408Z,30.89
2018-05-06T16:22:50.703Z,30.81
2018-05-06T16:25:19.046Z,31.11
2018-05-06T16:27:48.074Z,31.27
2018-05-06T16:30:16.323Z,31.38
2018-05-06T16:32:45.354Z,30.33
2018-05-06T16:35:13.615Z,30.71
2018-05-06T16:37:42.717Z,30.62
2018-05-06T16:40:10.974Z,30.61
2018-05-06T16:42:39.236Z,32.85
2018-05-06T16:45:07.497Z,33.61
2018-05-06T16:47:35.764Z,31.22
2018-05-06T16:50:04.017Z,30.55
2018-05-06T16:52:32.291Z,30.86
2018-05-06T16:55:01.324Z,34.17
2018-05-06T16:57:29.601Z,32.20
2018-05-06T16:59:57.857Z,31.59
2018-05-06T17:02:27.689Z,32.00
2018-05-06T17:04:55.965Z,32.17
2018-05-06T17:07:24.239Z,31.48
2018-05-06T17:09:52.490Z,32.49
2018-05-06T17:12:20.760Z,31.97
2018-05-06T17:14:49.018Z,32.56
2018-05-06T17:17:17.275Z,33.00
2018-05-06T17:19:45.587Z,33.25
2018-05-06T17:22:14.558Z,31.07
2018-05-06T17:24:42.820Z,31.76
2018-05-06T17:27:11.072Z,32.47
2018-05-06T17:29:39.344Z,32.40
2018-05-06T17:32:07.591Z,31.83
2018-05-06T17:34:36.342Z,31.93
2018-05-06T17:37:05.372Z,32.56
2018-05-06T17:39:33.755Z,32.43
2018-05-06T17:42:02.007Z,32.49
2018-05-06T17:44:30.278Z,33.77
2018-05-06T17:46:59.302Z,34.13
2018-05-06T17:49:27.564Z,33.43
2018-05-06T17:51:56.586Z,35.11
2018-05-06T17:54:26.086Z,32.95
2018-05-06T17:56:54.352Z,34.77
2018-05-06T17:59:22.624Z,34.51
2018-05-06T18:01:51.647Z,34.12
2018-05-06T18:04:19.915Z,34.12
2018-05-06T18:06:48.474Z,35.04
2018-05-06T18:09:16.787Z,33.10
2018-05-06T18:11:45.064Z,33.88
2018-05-06T18:14:13.396Z,35.05
2018-05-06T18:16:41.658Z,33.24
2018-05-06T18:19:09.921Z,33.96
2018-05-06T18:21:38.184Z,34.95
2018-05-06T18:24:07.287Z,34.06
2018-05-06T18:26:35.473Z,35.01
2018-05-06T18:29:03.791Z,36.03
2018-05-06T18:31:32.018Z,34.36
2018-05-06T18:34:01.250Z,35.05
2018-05-06T18:36:29.504Z,34.69
2018-05-06T18:38:58.611Z,36.42
2018-05-06T18:41:26.879Z,36.81
2018-05-06T18:43:55.902Z,37.88
2018-05-06T18:46:24.203Z,36.77
2018-05-06T18:48:52.447Z,39.00
2018-05-06T18:51:20.716Z,39.90
2018-05-06T18:53:49.735Z,41.03
2018-05-06T18:56:18.015Z,44.94
2018-05-06T18:58:46.272Z,44.19
2018-05-06T19:01:15.309Z,43.82
2018-05-06T19:03:43.567Z,42.76
2018-05-06T19:06:11.835Z,42.17
2018-05-06T19:08:40.867Z,43.52
2018-05-06T19:11:09.139Z,45.69
2018-05-06T19:13:37.402Z,46.01
2018-05-06T19:16:05.670Z,48.34
2018-05-06T19:18:34.688Z,48.32
2018-05-06T19:21:02.951Z,49.80
2018-05-06T19:23:31.971Z,48.56
2018-05-06T19:26:00.255Z,51.51
2018-05-06T19:28:28.515Z,50.88
2018-05-06T19:30:57.542Z,53.02
2018-05-06T19:33:25.801Z,55.19
2018-05-06T19:35:56.083Z,55.27
2018-05-06T19:38:24.340Z,55.56
2018-05-06T19:40:52.613Z,57.43
2018-05-06T19:43:20.863Z,58.31
2018-05-06T19:45:51.138Z,56.83
2018-05-06T19:48:19.651Z,59.32
2018-05-06T19:50:47.910Z,57.35
2018-05-06T19:53:16.174Z,58.90
2018-05-06T19:55:45.696Z,58.64
2018-05-06T19:58:14.046Z,58.27
2018-05-06T20:00:42.315Z,59.32
2018-05-06T20:03:10.559Z,58.85
2018-05-06T20:05:39.138Z,61.49
2018-05-06T20:08:07.398Z,59.10
2018-05-06T20:10:35.670Z,59.33
2018-05-06T20:13:03.939Z,59.32
2018-05-06T20:15:32.219Z,52.98
2018-05-06T20:18:00.475Z,59.89
2018-05-06T20:20:29.534Z,55.08
2018-05-06T20:22:57.790Z,54.90
2018-05-06T20:25:26.066Z,52.92
2018-05-06T20:27:54.347Z,54.58
2018-05-06T20:30:22.620Z,53.83
2018-05-06T20:32:50.886Z,49.95
2018-05-06T20:35:19.152Z,50.17
2018-05-06T20:37:48.167Z,49.52
2018-05-06T20:40:16.443Z,52.29
2018-05-06T20:42:44.699Z,50.68
2018-05-06T20:45:12.968Z,49.06
2018-05-06T20:47:41.236Z,49.92
2018-05-06T20:50:09.489Z,51.98
2018-05-06T20:52:37.757Z,49.14
2018-05-06T20:55:06.024Z,48.16
2018-05-06T20:57:34.295Z,49.34
2018-05-06T21:00:03.308Z,49.11
2018-05-06T21:02:31.571Z,48.57
2018-05-06T21:05:00.608Z,51.63
2018-05-06T21:07:28.886Z,51.59
2018-05-06T21:09:57.142Z,52.61
2018-05-06T21:12:25.426Z,52.96
2018-05-06T21:14:53.678Z,51.59
2018-05-06T21:17:21.944Z,49.90
2018-05-06T21:19:50.202Z,49.17
2018-05-06T21:22:18.468Z,48.72
2018-05-06T21:24:46.732Z,48.14
2018-05-06T21:27:15.746Z,48.42
2018-05-06T21:29:43.998Z,48.32
2018-05-06T21:32:13.044Z,48.36
2018-05-06T21:34:41.327Z,48.29
2018-05-06T21:37:10.635Z,49.12
2018-05-06T21:39:38.913Z,47.78
2018-05-06T21:42:07.161Z,48.09
2018-05-06T21:44:35.411Z,47.85
2018-05-06T21:47:04.448Z,47.38
2018-05-06T21:49:32.706Z,50.11
2018-05-06T21:52:01.750Z,50.77
2018-05-06T21:54:30.074Z,49.62
2018-05-06T21:56:58.287Z,49.12
2018-05-06T21:59:26.535Z,50.76
2018-05-06T22:01:55.567Z,49.75
2018-05-06T22:04:23.819Z,50.92
2018-05-06T22:06:52.849Z,50.56
2018-05-06T22:09:21.119Z,50.17
2018-05-06T22:11:49.363Z,51.24
2018-05-06T22:14:18.393Z,52.59
2018-05-06T22:16:46.680Z,49.24
2018-05-06T22:19:14.930Z,50.10
2018-05-06T22:21:43.972Z,50.07
2018-05-06T22:24:12.259Z,52.04
2018-05-06T22:26:40.514Z,50.93
2018-05-06T22:29:08.776Z,50.92
2018-05-06T22:31:37.816Z,49.88
2018-05-06T22:34:06.094Z,50.78
2018-05-06T22:36:34.360Z,52.16
2018-05-06T22:39:02.629Z,52.94
2018-05-06T22:41:30.952Z,51.06
2018-05-06T22:43:59.143Z,52.03
2018-05-06T22:46:27.435Z,51.90
2018-05-06T22:48:55.705Z,53.95
2018-05-06T22:51:23.960Z,54.02
2018-05-06T22:53:52.292Z,55.62
2018-05-06T22:56:20.542Z,52.62
2018-05-06T22:58:48.887Z,53.17
2018-05-06T23:01:17.146Z,53.53
2018-05-06T23:03:45.424Z,52.95
2018-05-06T23:06:14.459Z,53.13
2018-05-06T23:08:42.731Z,53.44
2018-05-06T23:11:11.058Z,52.37
2018-05-06T23:13:40.007Z,51.33
2018-05-06T23:16:08.267Z,49.89
2018-05-06T23:18:36.549Z,51.27
2018-05-06T23:21:04.811Z,52.13
2018-05-06T23:23:33.848Z,50.89
2018-05-06T23:26:02.115Z,51.10
2018-05-06T23:28:30.386Z,53.64
2018-05-06T23:30:58.648Z,52.39
2018-05-06T23:33:27.687Z,54.24
2018-05-06T23:35:56.001Z,53.05
2018-05-06T23:38:24.219Z,54.16
2018-05-06T23:40:53.248Z,53.85
2018-05-06T23:43:21.525Z,56.12
2018-05-06T23:45:49.770Z,53.16
2018-05-06T23:48:18.811Z,56.43
2018-05-06T23:50:47.067Z,58.75
2018-05-06T23:53:15.331Z,59.91
2018-05-06T23:55:44.350Z,59.38
2018-05-06T23:58:12.620Z,60.33
